sensor_id;sensor_type;location;lat;lon;timestamp;temperature;humidity
13569;DHT22;6856;51.460;7.158;2023-02-01T00:01:29;8.60;70.60
13569;DHT22;6856;51.460;7.158;2023-02-01T00:04:02;8.60;70.50
13569;DHT22;6856;51.460;7.158;2023-02-01T00:06:37;8.60;70.50
13569;DHT22;6856;51.460;7.158;2023-02-01T00:09:10;8.60;70.40
13569;DHT22;6856;51.460;7.158;2023-02-01T00:11:48;8.60;70.40
13569;DHT22;6856;51.460;7.158;2023-02-01T00:14:22;8.60;70.20
13569;DHT22;6856;51.460;7.158;2023-02-01T00:16:57;8.60;70.10
13569;DHT22;6856;51.460;7.158;2023-02-01T00:19:31;8.60;69.90
13569;DHT22;6856;51.460;7.158;2023-02-01T00:22:05;8.60;69.70
13569;DHT22;6856;51.460;7.158;2023-02-01T00:24:38;8.60;69.40
13569;DHT22;6856;51.460;7.158;2023-02-01T00:27:12;8.60;69.20
13569;DHT22;6856;51.460;7.158;2023-02-01T00:29:49;8.80;68.80
13569;DHT22;6856;51.460;7.158;2023-02-01T00:32:24;8.60;68.80
13569;DHT22;6856;51.460;7.158;2023-02-01T00:34:58;8.60;68.60
13569;DHT22;6856;51.460;7.158;2023-02-01T00:37:32;8.60;68.40
13569;DHT22;6856;51.460;7.158;2023-02-01T00:40:06;8.60;68.20
13569;DHT22;6856;51.460;7.158;2023-02-01T00:42:42;8.60;68.10
13569;DHT22;6856;51.460;7.158;2023-02-01T00:45:16;8.60;68.80
13569;DHT22;6856;51.460;7.158;2023-02-01T00:47:53;8.60;67.90
13569;DHT22;6856;51.460;7.158;2023-02-01T00:50:27;8.60;67.70
13569;DHT22;6856;51.460;7.158;2023-02-01T00:53:00;8.60;67.60
13569;DHT22;6856;51.460;7.158;2023-02-01T00:55:34;8.60;67.50
13569;DHT22;6856;51.460;7.158;2023-02-01T00:58:08;8.60;67.40
13569;DHT22;6856;51.460;7.158;2023-02-01T01:00:41;8.60;67.30
13569;DHT22;6856;51.460;7.158;2023-02-01T01:03:23;8.60;67.20
13569;DHT22;6856;51.460;7.158;2023-02-01T01:05:57;8.60;67.10
13569;DHT22;6856;51.460;7.158;2023-02-01T01:08:30;8.60;67.10
13569;DHT22;6856;51.460;7.158;2023-02-01T01:11:05;8.60;67.10
13569;DHT22;6856;51.460;7.158;2023-02-01T01:13:40;8.60;67.00
13569;DHT22;6856;51.460;7.158;2023-02-01T01:16:15;8.60;67.00
13569;DHT22;6856;51.460;7.158;2023-02-01T01:18:51;8.60;67.00
13569;DHT22;6856;51.460;7.158;2023-02-01T01:21:26;8.60;66.90
13569;DHT22;6856;51.460;7.158;2023-02-01T01:23:59;8.60;66.90
13569;DHT22;6856;51.460;7.158;2023-02-01T01:26:33;8.60;66.90
13569;DHT22;6856;51.460;7.158;2023-02-01T01:29:08;8.70;67.00
13569;DHT22;6856;51.460;7.158;2023-02-01T01:31:42;8.60;67.00
13569;DHT22;6856;51.460;7.158;2023-02-01T01:34:18;8.60;66.90
13569;DHT22;6856;51.460;7.158;2023-02-01T01:36:51;8.60;66.90
13569;DHT22;6856;51.460;7.158;2023-02-01T01:39:29;8.70;67.00
13569;DHT22;6856;51.460;7.158;2023-02-01T01:42:03;8.70;66.90
13569;DHT22;6856;51.460;7.158;2023-02-01T01:45:00;8.70;66.80
13569;DHT22;6856;51.460;7.158;2023-02-01T01:47:37;8.70;66.90
13569;DHT22;6856;51.460;7.158;2023-02-01T01:50:21;8.70;66.90
13569;DHT22;6856;51.460;7.158;2023-02-01T01:53:00;8.70;66.90
13569;DHT22;6856;51.460;7.158;2023-02-01T01:55:39;8.70;66.90
13569;DHT22;6856;51.460;7.158;2023-02-01T01:58:19;8.70;66.90
13569;DHT22;6856;51.460;7.158;2023-02-01T02:00:57;8.70;66.90
13569;DHT22;6856;51.460;7.158;2023-02-01T02:03:33;8.70;66.80
13569;DHT22;6856;51.460;7.158;2023-02-01T02:06:17;8.70;66.90
13569;DHT22;6856;51.460;7.158;2023-02-01T02:09:01;8.80;66.90
13569;DHT22;6856;51.460;7.158;2023-02-01T02:11:37;8.70;66.80
13569;DHT22;6856;51.460;7.158;2023-02-01T02:14:13;8.70;66.80
13569;DHT22;6856;51.460;7.158;2023-02-01T02:17:01;8.70;66.80
13569;DHT22;6856;51.460;7.158;2023-02-01T02:27:19;8.70;66.50
13569;DHT22;6856;51.460;7.158;2023-02-01T02:30:34;8.60;66.50
13569;DHT22;6856;51.460;7.158;2023-02-01T02:33:58;8.60;66.30
13569;DHT22;6856;51.460;7.158;2023-02-01T02:36:43;8.60;66.20
13569;DHT22;6856;51.460;7.158;2023-02-01T02:39:36;8.60;66.20
13569;DHT22;6856;51.460;7.158;2023-02-01T02:42:24;8.60;66.80
13569;DHT22;6856;51.460;7.158;2023-02-01T02:45:23;8.70;66.20
13569;DHT22;6856;51.460;7.158;2023-02-01T02:48:23;8.60;66.20
13569;DHT22;6856;51.460;7.158;2023-02-01T02:51:05;8.60;66.00
13569;DHT22;6856;51.460;7.158;2023-02-01T02:54:02;8.60;65.90
13569;DHT22;6856;51.460;7.158;2023-02-01T02:56:59;8.60;66.00
13569;DHT22;6856;51.460;7.158;2023-02-01T02:59:53;8.50;65.80
13569;DHT22;6856;51.460;7.158;2023-02-01T03:02:46;8.50;65.70
13569;DHT22;6856;51.460;7.158;2023-02-01T03:05:43;8.50;65.50
13569;DHT22;6856;51.460;7.158;2023-02-01T03:08:22;8.50;65.40
13569;DHT22;6856;51.460;7.158;2023-02-01T03:11:00;8.50;65.40
13569;DHT22;6856;51.460;7.158;2023-02-01T03:13:38;8.50;65.30
13569;DHT22;6856;51.460;7.158;2023-02-01T03:16:18;8.60;65.30
13569;DHT22;6856;51.460;7.158;2023-02-01T03:19:00;8.50;65.10
13569;DHT22;6856;51.460;7.158;2023-02-01T03:21:41;8.50;65.00
13569;DHT22;6856;51.460;7.158;2023-02-01T03:24:23;8.50;65.00
13569;DHT22;6856;51.460;7.158;2023-02-01T03:27:08;8.40;64.90
13569;DHT22;6856;51.460;7.158;2023-02-01T03:29:48;8.40;64.80
13569;DHT22;6856;51.460;7.158;2023-02-01T03:32:28;8.40;64.80
13569;DHT22;6856;51.460;7.158;2023-02-01T03:35:28;8.40;64.80
13569;DHT22;6856;51.460;7.158;2023-02-01T03:38:08;8.40;64.90
13569;DHT22;6856;51.460;7.158;2023-02-01T03:40:53;8.40;64.80
13569;DHT22;6856;51.460;7.158;2023-02-01T03:43:36;8.40;64.70
13569;DHT22;6856;51.460;7.158;2023-02-01T03:46:24;8.40;64.80
13569;DHT22;6856;51.460;7.158;2023-02-01T03:49:08;8.40;64.80
13569;DHT22;6856;51.460;7.158;2023-02-01T03:51:45;8.40;64.80
13569;DHT22;6856;51.460;7.158;2023-02-01T03:54:22;8.40;64.90
13569;DHT22;6856;51.460;7.158;2023-02-01T03:57:01;8.40;65.00
13569;DHT22;6856;51.460;7.158;2023-02-01T03:59:40;8.60;65.20
13569;DHT22;6856;51.460;7.158;2023-02-01T04:02:15;8.40;65.00
13569;DHT22;6856;51.460;7.158;2023-02-01T04:04:49;8.40;65.10
13569;DHT22;6856;51.460;7.158;2023-02-01T04:07:23;8.40;65.00
13569;DHT22;6856;51.460;7.158;2023-02-01T04:09:56;8.40;65.00
13569;DHT22;6856;51.460;7.158;2023-02-01T04:12:31;8.40;65.00
13569;DHT22;6856;51.460;7.158;2023-02-01T04:15:06;8.40;65.00
13569;DHT22;6856;51.460;7.158;2023-02-01T04:17:41;8.40;65.20
13569;DHT22;6856;51.460;7.158;2023-02-01T04:20:15;8.40;65.10
13569;DHT22;6856;51.460;7.158;2023-02-01T04:22:48;8.40;65.10
13569;DHT22;6856;51.460;7.158;2023-02-01T04:25:22;8.40;65.10
13569;DHT22;6856;51.460;7.158;2023-02-01T04:27:57;8.40;65.10
13569;DHT22;6856;51.460;7.158;2023-02-01T04:30:30;8.40;65.10
13569;DHT22;6856;51.460;7.158;2023-02-01T04:33:08;8.40;65.10
13569;DHT22;6856;51.460;7.158;2023-02-01T04:35:45;8.40;65.20
13569;DHT22;6856;51.460;7.158;2023-02-01T04:38:20;8.60;65.40
13569;DHT22;6856;51.460;7.158;2023-02-01T04:40:54;8.50;65.20
13569;DHT22;6856;51.460;7.158;2023-02-01T04:43:29;8.50;65.20
13569;DHT22;6856;51.460;7.158;2023-02-01T04:46:03;8.40;65.10
13569;DHT22;6856;51.460;7.158;2023-02-01T04:48:37;8.50;65.20
13569;DHT22;6856;51.460;7.158;2023-02-01T04:51:12;8.50;65.20
13569;DHT22;6856;51.460;7.158;2023-02-01T04:53:47;8.50;65.20
13569;DHT22;6856;51.460;7.158;2023-02-01T04:56:21;8.50;65.30
13569;DHT22;6856;51.460;7.158;2023-02-01T04:58:56;8.50;65.30
13569;DHT22;6856;51.460;7.158;2023-02-01T05:01:30;8.50;65.30
13569;DHT22;6856;51.460;7.158;2023-02-01T05:04:05;8.40;65.30
13569;DHT22;6856;51.460;7.158;2023-02-01T05:06:38;8.50;65.30
13569;DHT22;6856;51.460;7.158;2023-02-01T05:09:12;8.50;65.40
13569;DHT22;6856;51.460;7.158;2023-02-01T05:11:46;8.50;65.40
13569;DHT22;6856;51.460;7.158;2023-02-01T05:14:39;8.50;65.30
13569;DHT22;6856;51.460;7.158;2023-02-01T05:17:13;8.50;64.70
13569;DHT22;6856;51.460;7.158;2023-02-01T05:19:47;8.50;65.40
13569;DHT22;6856;51.460;7.158;2023-02-01T05:22:21;8.50;65.40
13569;DHT22;6856;51.460;7.158;2023-02-01T05:24:54;8.40;65.40
13569;DHT22;6856;51.460;7.158;2023-02-01T05:27:29;8.40;65.40
13569;DHT22;6856;51.460;7.158;2023-02-01T05:30:08;8.40;65.50
13569;DHT22;6856;51.460;7.158;2023-02-01T05:32:43;8.40;65.50
13569;DHT22;6856;51.460;7.158;2023-02-01T05:35:19;8.40;65.40
13569;DHT22;6856;51.460;7.158;2023-02-01T05:37:53;8.40;65.50
13569;DHT22;6856;51.460;7.158;2023-02-01T05:40:26;8.40;65.50
13569;DHT22;6856;51.460;7.158;2023-02-01T05:43:00;8.40;65.50
13569;DHT22;6856;51.460;7.158;2023-02-01T05:45:35;8.40;65.60
13569;DHT22;6856;51.460;7.158;2023-02-01T05:48:09;8.60;65.70
13569;DHT22;6856;51.460;7.158;2023-02-01T05:50:43;8.40;65.60
13569;DHT22;6856;51.460;7.158;2023-02-01T05:53:17;8.40;65.50
13569;DHT22;6856;51.460;7.158;2023-02-01T05:55:51;8.40;65.50
13569;DHT22;6856;51.460;7.158;2023-02-01T05:58:24;8.40;65.40
13569;DHT22;6856;51.460;7.158;2023-02-01T06:01:00;8.40;65.50
13569;DHT22;6856;51.460;7.158;2023-02-01T06:03:36;8.40;65.40
13569;DHT22;6856;51.460;7.158;2023-02-01T06:06:10;8.40;65.50
13569;DHT22;6856;51.460;7.158;2023-02-01T06:08:43;8.30;65.40
13569;DHT22;6856;51.460;7.158;2023-02-01T06:11:17;8.30;65.50
13569;DHT22;6856;51.460;7.158;2023-02-01T06:14:03;8.30;65.40
13569;DHT22;6856;51.460;7.158;2023-02-01T06:16:38;8.30;65.50
13569;DHT22;6856;51.460;7.158;2023-02-01T06:19:12;8.50;65.70
13569;DHT22;6856;51.460;7.158;2023-02-01T06:21:46;8.30;65.70
13569;DHT22;6856;51.460;7.158;2023-02-01T06:24:20;8.30;65.80
13569;DHT22;6856;51.460;7.158;2023-02-01T06:26:54;8.30;65.80
13569;DHT22;6856;51.460;7.158;2023-02-01T06:29:28;8.30;65.70
13569;DHT22;6856;51.460;7.158;2023-02-01T06:32:03;8.30;65.80
13569;DHT22;6856;51.460;7.158;2023-02-01T06:34:36;8.30;65.80
13569;DHT22;6856;51.460;7.158;2023-02-01T06:37:12;8.30;65.90
13569;DHT22;6856;51.460;7.158;2023-02-01T06:39:45;8.30;65.80
13569;DHT22;6856;51.460;7.158;2023-02-01T06:42:20;8.30;65.50
13569;DHT22;6856;51.460;7.158;2023-02-01T06:44:53;8.30;65.70
13569;DHT22;6856;51.460;7.158;2023-02-01T06:47:28;8.30;65.70
13569;DHT22;6856;51.460;7.158;2023-02-01T06:50:02;8.30;65.80
13569;DHT22;6856;51.460;7.158;2023-02-01T06:52:36;8.30;65.80
13569;DHT22;6856;51.460;7.158;2023-02-01T06:55:10;8.30;66.40
13569;DHT22;6856;51.460;7.158;2023-02-01T06:57:43;8.30;65.70
13569;DHT22;6856;51.460;7.158;2023-02-01T07:00:18;8.30;65.60
13569;DHT22;6856;51.460;7.158;2023-02-01T07:02:54;8.30;65.80
13569;DHT22;6856;51.460;7.158;2023-02-01T07:05:28;8.30;65.70
13569;DHT22;6856;51.460;7.158;2023-02-01T07:08:01;8.40;65.70
13569;DHT22;6856;51.460;7.158;2023-02-01T07:10:35;8.40;65.60
13569;DHT22;6856;51.460;7.158;2023-02-01T07:13:08;8.40;65.40
13569;DHT22;6856;51.460;7.158;2023-02-01T07:15:42;8.60;65.60
13569;DHT22;6856;51.460;7.158;2023-02-01T07:18:17;8.40;65.60
13569;DHT22;6856;51.460;7.158;2023-02-01T07:20:51;8.40;65.60
13569;DHT22;6856;51.460;7.158;2023-02-01T07:23:26;8.40;65.50
13569;DHT22;6856;51.460;7.158;2023-02-01T07:26:02;8.40;65.70
13569;DHT22;6856;51.460;7.158;2023-02-01T07:28:39;8.40;65.60
13569;DHT22;6856;51.460;7.158;2023-02-01T07:31:14;8.50;65.70
13569;DHT22;6856;51.460;7.158;2023-02-01T07:33:52;8.60;65.80
13569;DHT22;6856;51.460;7.158;2023-02-01T07:36:28;8.50;65.60
13569;DHT22;6856;51.460;7.158;2023-02-01T07:39:02;8.50;65.60
13569;DHT22;6856;51.460;7.158;2023-02-01T07:41:35;8.50;65.70
13569;DHT22;6856;51.460;7.158;2023-02-01T07:44:09;8.50;65.60
13569;DHT22;6856;51.460;7.158;2023-02-01T07:46:43;8.50;65.50
13569;DHT22;6856;51.460;7.158;2023-02-01T07:49:18;8.50;65.60
13569;DHT22;6856;51.460;7.158;2023-02-01T07:51:51;8.50;65.60
13569;DHT22;6856;51.460;7.158;2023-02-01T07:54:25;8.60;65.70
13569;DHT22;6856;51.460;7.158;2023-02-01T07:56:59;8.60;65.70
13569;DHT22;6856;51.460;7.158;2023-02-01T07:59:33;8.50;65.60
13569;DHT22;6856;51.460;7.158;2023-02-01T08:02:07;8.60;65.70
13569;DHT22;6856;51.460;7.158;2023-02-01T08:04:42;8.60;65.70
13569;DHT22;6856;51.460;7.158;2023-02-01T08:07:16;8.60;65.70
13569;DHT22;6856;51.460;7.158;2023-02-01T08:09:49;8.60;65.70
13569;DHT22;6856;51.460;7.158;2023-02-01T08:12:23;8.60;65.70
13569;DHT22;6856;51.460;7.158;2023-02-01T08:14:57;8.60;65.70
13569;DHT22;6856;51.460;7.158;2023-02-01T08:17:31;8.60;65.70
13569;DHT22;6856;51.460;7.158;2023-02-01T08:20:07;8.60;65.70
13569;DHT22;6856;51.460;7.158;2023-02-01T08:22:43;8.60;65.80
13569;DHT22;6856;51.460;7.158;2023-02-01T08:25:16;8.60;65.80
13569;DHT22;6856;51.460;7.158;2023-02-01T08:27:50;8.60;65.70
13569;DHT22;6856;51.460;7.158;2023-02-01T08:30:25;8.60;65.70
13569;DHT22;6856;51.460;7.158;2023-02-01T08:32:59;8.70;65.80
13569;DHT22;6856;51.460;7.158;2023-02-01T08:35:36;8.70;65.70
13569;DHT22;6856;51.460;7.158;2023-02-01T08:38:14;8.70;65.80
13569;DHT22;6856;51.460;7.158;2023-02-01T08:40:48;8.70;65.80
13569;DHT22;6856;51.460;7.158;2023-02-01T08:43:22;8.70;65.80
13569;DHT22;6856;51.460;7.158;2023-02-01T08:45:56;8.70;65.90
13569;DHT22;6856;51.460;7.158;2023-02-01T08:48:30;8.70;65.80
13569;DHT22;6856;51.460;7.158;2023-02-01T08:51:07;8.70;65.80
13569;DHT22;6856;51.460;7.158;2023-02-01T08:53:42;8.70;65.90
13569;DHT22;6856;51.460;7.158;2023-02-01T08:56:17;8.70;65.80
13569;DHT22;6856;51.460;7.158;2023-02-01T08:58:52;8.70;65.90
13569;DHT22;6856;51.460;7.158;2023-02-01T09:01:26;8.70;65.90
13569;DHT22;6856;51.460;7.158;2023-02-01T09:03:59;8.80;65.90
13569;DHT22;6856;51.460;7.158;2023-02-01T09:06:34;8.80;65.80
13569;DHT22;6856;51.460;7.158;2023-02-01T09:09:07;8.80;66.50
13569;DHT22;6856;51.460;7.158;2023-02-01T09:11:41;8.80;65.80
13569;DHT22;6856;51.460;7.158;2023-02-01T09:14:15;8.80;65.80
13569;DHT22;6856;51.460;7.158;2023-02-01T09:16:48;8.90;65.80
13569;DHT22;6856;51.460;7.158;2023-02-01T09:19:22;8.80;65.80
13569;DHT22;6856;51.460;7.158;2023-02-01T09:21:59;8.80;65.70
13569;DHT22;6856;51.460;7.158;2023-02-01T09:24:32;8.90;65.80
13569;DHT22;6856;51.460;7.158;2023-02-01T09:27:06;8.80;65.80
13569;DHT22;6856;51.460;7.158;2023-02-01T09:29:39;8.90;65.80
13569;DHT22;6856;51.460;7.158;2023-02-01T09:32:13;8.90;65.80
13569;DHT22;6856;51.460;7.158;2023-02-01T09:34:47;8.90;65.70
13569;DHT22;6856;51.460;7.158;2023-02-01T09:37:23;8.90;65.70
13569;DHT22;6856;51.460;7.158;2023-02-01T09:39:57;8.90;65.60
13569;DHT22;6856;51.460;7.158;2023-02-01T09:42:46;8.90;65.60
13569;DHT22;6856;51.460;7.158;2023-02-01T09:45:39;8.90;65.70
13569;DHT22;6856;51.460;7.158;2023-02-01T09:48:27;8.90;65.60
13569;DHT22;6856;51.460;7.158;2023-02-01T09:51:09;8.90;65.70
13569;DHT22;6856;51.460;7.158;2023-02-01T09:53:57;9.00;65.80
13569;DHT22;6856;51.460;7.158;2023-02-01T09:56:41;9.00;65.70
13569;DHT22;6856;51.460;7.158;2023-02-01T09:59:26;9.00;65.60
13569;DHT22;6856;51.460;7.158;2023-02-01T10:02:13;9.00;65.60
13569;DHT22;6856;51.460;7.158;2023-02-01T10:04:53;9.00;65.70
13569;DHT22;6856;51.460;7.158;2023-02-01T10:07:35;9.10;65.90
13569;DHT22;6856;51.460;7.158;2023-02-01T10:10:23;9.10;65.70
13569;DHT22;6856;51.460;7.158;2023-02-01T10:13:17;9.20;65.60
13569;DHT22;6856;51.460;7.158;2023-02-01T10:16:15;9.10;65.30
13569;DHT22;6856;51.460;7.158;2023-02-01T10:19:20;9.10;66.10
13569;DHT22;6856;51.460;7.158;2023-02-01T10:22:03;9.10;65.70
13569;DHT22;6856;51.460;7.158;2023-02-01T10:24:42;9.10;65.40
13569;DHT22;6856;51.460;7.158;2023-02-01T10:27:21;9.20;65.50
13569;DHT22;6856;51.460;7.158;2023-02-01T10:29:59;9.20;65.40
13569;DHT22;6856;51.460;7.158;2023-02-01T10:32:40;9.40;65.40
13569;DHT22;6856;51.460;7.158;2023-02-01T10:35:17;9.20;65.30
13569;DHT22;6856;51.460;7.158;2023-02-01T10:37:58;9.20;65.20
13569;DHT22;6856;51.460;7.158;2023-02-01T10:40:35;9.30;65.30
13569;DHT22;6856;51.460;7.158;2023-02-01T10:43:12;9.20;65.20
13569;DHT22;6856;51.460;7.158;2023-02-01T10:45:46;9.20;65.10
13569;DHT22;6856;51.460;7.158;2023-02-01T10:48:19;9.20;65.00
13569;DHT22;6856;51.460;7.158;2023-02-01T10:50:57;9.30;65.10
13569;DHT22;6856;51.460;7.158;2023-02-01T10:53:36;9.20;65.00
13569;DHT22;6856;51.460;7.158;2023-02-01T10:56:22;9.30;65.00
13569;DHT22;6856;51.460;7.158;2023-02-01T10:59:02;9.30;64.90
13569;DHT22;6856;51.460;7.158;2023-02-01T11:01:40;9.30;64.80
13569;DHT22;6856;51.460;7.158;2023-02-01T11:04:18;9.30;64.90
13569;DHT22;6856;51.460;7.158;2023-02-01T11:07:03;9.30;64.90
13569;DHT22;6856;51.460;7.158;2023-02-01T11:09:41;9.30;64.80
13569;DHT22;6856;51.460;7.158;2023-02-01T11:12:29;9.50;65.00
13569;DHT22;6856;51.460;7.158;2023-02-01T11:15:17;9.30;64.80
13569;DHT22;6856;51.460;7.158;2023-02-01T11:17:53;9.30;64.60
13569;DHT22;6856;51.460;7.158;2023-02-01T11:20:37;9.30;64.70
13569;DHT22;6856;51.460;7.158;2023-02-01T11:23:15;9.30;64.70
13569;DHT22;6856;51.460;7.158;2023-02-01T11:25:52;9.40;64.90
13569;DHT22;6856;51.460;7.158;2023-02-01T11:28:31;9.40;64.90
13569;DHT22;6856;51.460;7.158;2023-02-01T11:31:10;9.40;64.90
13569;DHT22;6856;51.460;7.158;2023-02-01T11:33:50;9.40;64.80
13569;DHT22;6856;51.460;7.158;2023-02-01T11:36:29;9.40;64.70
13569;DHT22;6856;51.460;7.158;2023-02-01T11:39:17;9.40;64.60
13569;DHT22;6856;51.460;7.158;2023-02-01T11:42:04;9.60;64.60
13569;DHT22;6856;51.460;7.158;2023-02-01T11:44:46;9.50;64.50
13569;DHT22;6856;51.460;7.158;2023-02-01T11:47:26;9.50;64.60
13569;DHT22;6856;51.460;7.158;2023-02-01T11:50:09;9.50;64.50
13569;DHT22;6856;51.460;7.158;2023-02-01T11:53:04;9.50;64.50
13569;DHT22;6856;51.460;7.158;2023-02-01T11:56:08;9.50;64.40
13569;DHT22;6856;51.460;7.158;2023-02-01T11:59:01;9.50;64.30
13569;DHT22;6856;51.460;7.158;2023-02-01T12:02:03;9.50;64.30
13569;DHT22;6856;51.460;7.158;2023-02-01T12:05:12;9.50;64.50
13569;DHT22;6856;51.460;7.158;2023-02-01T12:08:13;9.50;64.60
13569;DHT22;6856;51.460;7.158;2023-02-01T12:11:14;9.50;64.70
13569;DHT22;6856;51.460;7.158;2023-02-01T12:14:14;9.50;64.90
13569;DHT22;6856;51.460;7.158;2023-02-01T12:17:17;9.40;64.90
13569;DHT22;6856;51.460;7.158;2023-02-01T12:20:21;9.40;65.10
13569;DHT22;6856;51.460;7.158;2023-02-01T12:23:14;9.40;65.10
13569;DHT22;6856;51.460;7.158;2023-02-01T12:26:05;9.30;65.10
13569;DHT22;6856;51.460;7.158;2023-02-01T12:29:09;9.30;65.30
13569;DHT22;6856;51.460;7.158;2023-02-01T12:32:03;9.30;66.10
13569;DHT22;6856;51.460;7.158;2023-02-01T12:35:17;9.40;65.60
13569;DHT22;6856;51.460;7.158;2023-02-01T12:41:17;9.30;65.80
13569;DHT22;6856;51.460;7.158;2023-02-01T12:44:04;9.30;65.80
13569;DHT22;6856;51.460;7.158;2023-02-01T12:46:48;9.30;65.90
13569;DHT22;6856;51.460;7.158;2023-02-01T12:49:32;9.30;65.80
13569;DHT22;6856;51.460;7.158;2023-02-01T12:52:19;9.30;65.80
13569;DHT22;6856;51.460;7.158;2023-02-01T12:55:01;9.30;65.80
13569;DHT22;6856;51.460;7.158;2023-02-01T12:57:43;9.30;65.80
13569;DHT22;6856;51.460;7.158;2023-02-01T13:00:27;9.40;65.80
13569;DHT22;6856;51.460;7.158;2023-02-01T13:03:11;9.40;65.80
13569;DHT22;6856;51.460;7.158;2023-02-01T13:05:56;9.40;65.70
13569;DHT22;6856;51.460;7.158;2023-02-01T13:08:47;9.40;65.50
13569;DHT22;6856;51.460;7.158;2023-02-01T13:11:27;9.40;65.60
13569;DHT22;6856;51.460;7.158;2023-02-01T13:14:14;9.40;65.50
13569;DHT22;6856;51.460;7.158;2023-02-01T13:17:02;9.60;65.60
13569;DHT22;6856;51.460;7.158;2023-02-01T13:19:42;9.40;65.50
13569;DHT22;6856;51.460;7.158;2023-02-01T13:22:22;9.50;66.20
13569;DHT22;6856;51.460;7.158;2023-02-01T13:25:07;9.50;65.50
13569;DHT22;6856;51.460;7.158;2023-02-01T13:27:46;9.50;65.50
13569;DHT22;6856;51.460;7.158;2023-02-01T13:30:25;9.50;65.40
13569;DHT22;6856;51.460;7.158;2023-02-01T13:33:24;9.50;65.40
13569;DHT22;6856;51.460;7.158;2023-02-01T13:36:46;9.50;65.30
13569;DHT22;6856;51.460;7.158;2023-02-01T13:39:43;9.60;65.30
13569;DHT22;6856;51.460;7.158;2023-02-01T13:42:26;9.60;65.20
13569;DHT22;6856;51.460;7.158;2023-02-01T13:45:04;9.80;65.40
13569;DHT22;6856;51.460;7.158;2023-02-01T13:47:48;9.60;65.20
13569;DHT22;6856;51.460;7.158;2023-02-01T13:50:28;9.60;65.90
13569;DHT22;6856;51.460;7.158;2023-02-01T13:53:16;9.60;65.10
13569;DHT22;6856;51.460;7.158;2023-02-01T13:55:57;9.80;65.20
13569;DHT22;6856;51.460;7.158;2023-02-01T13:58:36;9.60;65.10
13569;DHT22;6856;51.460;7.158;2023-02-01T14:01:45;9.70;65.10
13569;DHT22;6856;51.460;7.158;2023-02-01T14:04:46;9.70;64.90
13569;DHT22;6856;51.460;7.158;2023-02-01T14:07:22;9.70;64.90
13569;DHT22;6856;51.460;7.158;2023-02-01T14:13:28;9.80;64.90
13569;DHT22;6856;51.460;7.158;2023-02-01T14:16:16;9.80;64.90
13569;DHT22;6856;51.460;7.158;2023-02-01T14:19:01;9.80;64.80
13569;DHT22;6856;51.460;7.158;2023-02-01T14:21:47;9.80;64.70
13569;DHT22;6856;51.460;7.158;2023-02-01T14:24:25;9.80;65.50
13569;DHT22;6856;51.460;7.158;2023-02-01T14:27:02;9.80;65.50
13569;DHT22;6856;51.460;7.158;2023-02-01T14:29:51;9.90;64.80
13569;DHT22;6856;51.460;7.158;2023-02-01T14:32:36;9.90;64.70
13569;DHT22;6856;51.460;7.158;2023-02-01T14:35:19;9.90;64.70
13569;DHT22;6856;51.460;7.158;2023-02-01T14:38:00;9.90;64.70
13569;DHT22;6856;51.460;7.158;2023-02-01T14:40:36;9.90;64.70
13569;DHT22;6856;51.460;7.158;2023-02-01T14:43:10;10.00;64.80
13569;DHT22;6856;51.460;7.158;2023-02-01T14:46:03;9.90;64.60
13569;DHT22;6856;51.460;7.158;2023-02-01T14:48:46;9.90;64.70
13569;DHT22;6856;51.460;7.158;2023-02-01T14:51:21;10.10;64.80
13569;DHT22;6856;51.460;7.158;2023-02-01T14:53:58;10.20;64.90
13569;DHT22;6856;51.460;7.158;2023-02-01T14:56:32;10.00;64.70
13569;DHT22;6856;51.460;7.158;2023-02-01T14:59:08;10.00;64.60
13569;DHT22;6856;51.460;7.158;2023-02-01T15:01:50;9.90;64.70
13569;DHT22;6856;51.460;7.158;2023-02-01T15:04:41;10.00;64.60
13569;DHT22;6856;51.460;7.158;2023-02-01T15:07:15;10.00;64.60
13569;DHT22;6856;51.460;7.158;2023-02-01T15:09:49;10.10;64.60
13569;DHT22;6856;51.460;7.158;2023-02-01T15:12:26;10.00;64.60
13569;DHT22;6856;51.460;7.158;2023-02-01T15:15:12;10.00;64.50
13569;DHT22;6856;51.460;7.158;2023-02-01T15:17:50;10.00;64.50
13569;DHT22;6856;51.460;7.158;2023-02-01T15:20:28;10.10;64.50
13569;DHT22;6856;51.460;7.158;2023-02-01T15:23:14;10.10;65.10
13569;DHT22;6856;51.460;7.158;2023-02-01T15:25:51;10.10;64.30
13569;DHT22;6856;51.460;7.158;2023-02-01T15:28:26;10.10;64.30
13569;DHT22;6856;51.460;7.158;2023-02-01T15:31:01;10.10;64.30
13569;DHT22;6856;51.460;7.158;2023-02-01T15:33:36;10.10;64.30
13569;DHT22;6856;51.460;7.158;2023-02-01T15:36:18;10.20;64.10
13569;DHT22;6856;51.460;7.158;2023-02-01T15:39:16;10.20;64.20
13569;DHT22;6856;51.460;7.158;2023-02-01T15:41:54;10.20;64.10
13569;DHT22;6856;51.460;7.158;2023-02-01T15:44:37;10.20;64.10
13569;DHT22;6856;51.460;7.158;2023-02-01T15:47:16;10.20;64.00
13569;DHT22;6856;51.460;7.158;2023-02-01T15:49:52;10.40;64.10
13569;DHT22;6856;51.460;7.158;2023-02-01T15:52:34;10.20;63.90
13569;DHT22;6856;51.460;7.158;2023-02-01T15:55:19;10.20;63.80
13569;DHT22;6856;51.460;7.158;2023-02-01T15:57:57;10.20;63.80
13569;DHT22;6856;51.460;7.158;2023-02-01T16:00:34;10.30;63.70
13569;DHT22;6856;51.460;7.158;2023-02-01T16:03:32;10.30;63.80
13569;DHT22;6856;51.460;7.158;2023-02-01T16:06:12;10.30;63.70
13569;DHT22;6856;51.460;7.158;2023-02-01T16:09:09;10.30;63.70
13569;DHT22;6856;51.460;7.158;2023-02-01T16:11:55;10.30;63.70
13569;DHT22;6856;51.460;7.158;2023-02-01T16:14:31;10.30;63.60
13569;DHT22;6856;51.460;7.158;2023-02-01T16:17:04;10.30;63.50
13569;DHT22;6856;51.460;7.158;2023-02-01T16:19:40;10.40;63.60
13569;DHT22;6856;51.460;7.158;2023-02-01T16:22:14;10.40;63.70
13569;DHT22;6856;51.460;7.158;2023-02-01T16:24:49;10.40;63.80
13569;DHT22;6856;51.460;7.158;2023-02-01T16:27:23;10.30;63.90
13569;DHT22;6856;51.460;7.158;2023-02-01T16:29:57;10.30;64.00
13569;DHT22;6856;51.460;7.158;2023-02-01T16:32:31;10.40;64.00
13569;DHT22;6856;51.460;7.158;2023-02-01T16:35:08;10.30;64.00
13569;DHT22;6856;51.460;7.158;2023-02-01T16:37:51;10.30;64.10
13569;DHT22;6856;51.460;7.158;2023-02-01T16:40:26;10.30;64.20
13569;DHT22;6856;51.460;7.158;2023-02-01T16:43:00;10.20;64.20
13569;DHT22;6856;51.460;7.158;2023-02-01T16:45:36;10.20;64.20
13569;DHT22;6856;51.460;7.158;2023-02-01T16:48:18;10.10;64.30
13569;DHT22;6856;51.460;7.158;2023-02-01T16:50:56;10.10;64.50
13569;DHT22;6856;51.460;7.158;2023-02-01T16:53:32;10.30;64.80
13569;DHT22;6856;51.460;7.158;2023-02-01T16:56:29;10.00;64.70
13569;DHT22;6856;51.460;7.158;2023-02-01T16:59:03;10.00;64.90
13569;DHT22;6856;51.460;7.158;2023-02-01T17:01:40;9.90;65.60
13569;DHT22;6856;51.460;7.158;2023-02-01T17:04:15;10.00;65.00
13569;DHT22;6856;51.460;7.158;2023-02-01T17:06:52;9.90;65.00
13569;DHT22;6856;51.460;7.158;2023-02-01T17:09:26;9.90;65.10
13569;DHT22;6856;51.460;7.158;2023-02-01T17:12:01;9.90;65.10
13569;DHT22;6856;51.460;7.158;2023-02-01T17:14:38;9.90;65.10
13569;DHT22;6856;51.460;7.158;2023-02-01T17:17:13;9.90;65.20
13569;DHT22;6856;51.460;7.158;2023-02-01T17:19:53;9.90;65.20
13569;DHT22;6856;51.460;7.158;2023-02-01T17:22:27;9.90;65.30
13569;DHT22;6856;51.460;7.158;2023-02-01T17:25:01;9.90;65.20
13569;DHT22;6856;51.460;7.158;2023-02-01T17:27:39;9.90;65.30
13569;DHT22;6856;51.460;7.158;2023-02-01T17:30:14;9.90;65.50
13569;DHT22;6856;51.460;7.158;2023-02-01T17:32:49;9.90;65.50
13569;DHT22;6856;51.460;7.158;2023-02-01T17:35:24;10.10;65.50